Time;durP1;ratioP1;P1;durP2;ratioP2;P2;SDS_P1;SDS_P2;PMS_P1;PMS_P2;Temp;Humidity;BMP_temperature;BMP_pressure;BME280_temperature;BME280_humidity;BME280_pressure;Samples;Min_cycle;Max_cycle;Signal;HPM_P1;HPM_P2
2022/08/22 00:01:10;;;;;;;11.82;6.57;;;;;;;22.95;75.98;100298.75;4978834;28;104048;-54
2022/08/22 00:03:46;;;;;;;15.68;6.55;;;;;;;22.96;75.98;100306.69;4978795;28;102059;-54
2022/08/22 00:06:20;;;;;;;9.70;6.03;;;;;;;22.95;75.87;100310.66;4958443;28;102038;-54
2022/08/22 00:09:02;;;;;;;11.55;6.03;;;;;;;22.94;76.20;100306.28;4976194;28;102144;-54
2022/08/22 00:11:41;;;;;;;8.82;6.10;;;;;;;22.95;76.07;100309.84;4985992;28;103955;-53
2022/08/22 00:14:18;;;;;;;12.52;6.85;;;;;;;22.95;76.12;100301.53;4977272;28;101939;-54
2022/08/22 00:16:55;;;;;;;13.93;6.72;;;;;;;22.95;75.91;100309.84;4977580;28;102199;-54
2022/08/22 00:19:28;;;;;;;14.38;5.18;;;;;;;22.95;76.20;100309.84;4979123;28;102208;-54
2022/08/22 00:22:03;;;;;;;9.20;5.32;;;;;;;22.95;76.13;100305.09;4977253;28;104313;-54
2022/08/22 00:24:39;;;;;;;12.35;5.95;;;;;;;22.95;76.28;100301.53;4978293;28;102339;-53
2022/08/22 00:27:11;;;;;;;10.05;5.50;;;;;;;22.96;76.23;100311.44;4976840;28;102112;-53
2022/08/22 00:29:42;;;;;;;9.90;6.05;;;;;;;22.94;76.18;100313.81;4979148;28;102257;-53
2022/08/22 00:32:14;;;;;;;8.55;5.32;;;;;;;22.94;76.28;100309.06;4960150;28;103916;-54
2022/08/22 00:34:47;;;;;;;11.93;6.15;;;;;;;22.95;76.14;100309.84;4972153;28;102396;-53
2022/08/22 00:37:22;;;;;;;10.23;5.65;;;;;;;22.95;76.11;100309.84;4997749;28;102287;-54
2022/08/22 00:39:54;;;;;;;13.77;6.25;;;;;;;22.95;75.91;100304.28;4980688;28;102262;-54
2022/08/22 00:42:51;;;;;;;7.95;5.78;;;;;;;22.95;76.07;100304.28;4977480;28;103781;-54
2022/08/22 00:45:47;;;;;;;11.05;5.95;;;;;;;22.94;76.06;100308.25;4978258;28;102438;-54
2022/08/22 00:48:47;;;;;;;15.20;5.97;;;;;;;22.94;75.95;100302.69;4983370;28;102568;-54
2022/08/22 00:51:35;;;;;;;16.67;7.53;;;;;;;22.93;76.12;100306.63;4998703;28;102174;-53
2022/08/22 00:54:11;;;;;;;10.27;5.57;;;;;;;22.94;76.06;100308.25;4996923;28;104070;-54
2022/08/22 00:57:09;;;;;;;10.88;6.65;;;;;;;22.94;76.08;100313.81;4998034;28;102361;-54
2022/08/22 00:59:59;;;;;;;15.02;7.03;;;;;;;22.93;76.26;100317.72;4995353;28;102155;-54
2022/08/22 01:02:39;;;;;;;17.65;7.13;;;;;;;22.92;76.08;100316.13;4978267;28;102437;-54
2022/08/22 01:05:24;;;;;;;16.55;6.63;;;;;;;22.93;76.36;100309.41;4969883;28;103907;-54
2022/08/22 01:08:14;;;;;;;11.32;5.53;;;;;;;22.92;76.16;100310.56;4977188;28;102232;-55
2022/08/22 01:10:59;;;;;;;14.45;6.25;;;;;;;22.92;76.09;100310.56;4976797;28;102192;-54
2022/08/22 01:13:52;;;;;;;12.70;5.85;;;;;;;22.93;76.06;100312.16;4978165;28;102032;-54
2022/08/22 01:16:47;;;;;;;10.35;5.70;;;;;;;22.94;76.38;100311.03;4976935;28;103939;-54
2022/08/22 01:19:48;;;;;;;14.93;5.75;;;;;;;22.92;76.21;100305.03;4977864;28;102088;-54
2022/08/22 01:22:47;;;;;;;11.57;5.47;;;;;;;22.92;76.08;100305.03;4941041;28;102542;-54
2022/08/22 01:25:43;;;;;;;;;;;;;;;22.93;76.52;100301.06;4958963;28;102250;-53
2022/08/22 01:28:37;;;;;;;13.27;5.57;;;;;;;22.92;76.17;100310.56;4956808;28;103913;-54
2022/08/22 01:31:51;;;;;;;12.35;5.53;;;;;;;22.92;76.26;100310.56;4966587;28;102249;-54
2022/08/22 01:34:56;;;;;;;16.63;6.22;;;;;;;22.92;76.22;100299.47;4976043;28;102164;-54
2022/08/22 01:37:58;;;;;;;19.08;6.28;;;;;;;22.91;76.26;100306.16;4956224;28;102233;-54
2022/08/22 01:40:54;;;;;;;19.98;7.88;;;;;;;22.92;76.14;100299.47;4956848;28;104123;-54
2022/08/22 01:43:41;;;;;;;14.40;6.68;;;;;;;22.91;76.25;100297.84;4972716;28;102186;-54
2022/08/22 01:46:31;;;;;;;17.17;7.07;;;;;;;22.91;76.33;100301.41;4976819;28;102659;-54
2022/08/22 01:49:10;;;;;;;19.33;7.53;;;;;;;22.90;76.26;100305.38;4978026;28;102250;-54
2022/08/22 01:51:42;;;;;;;11.98;6.20;;;;;;;22.90;76.26;100305.38;4967327;28;108228;-53
2022/08/22 01:54:20;;;;;;;17.00;6.95;;;;;;;22.91;76.19;100308.94;4957413;28;102307;-54
2022/08/22 01:56:47;;;;;;;19.52;7.28;;;;;;;22.89;76.13;100305.72;4961587;28;102429;-54
2022/08/22 01:59:25;;;;;;;20.98;7.18;;;;;;;22.89;76.19;100308.50;4977776;28;102216;-53
2022/08/22 02:02:00;;;;;;;14.10;6.78;;;;;;;22.88;76.53;100304.91;4976096;28;103836;-54
2022/08/22 02:04:38;;;;;;;15.57;7.10;;;;;;;22.89;76.60;100308.50;4971973;28;102234;-54
2022/08/22 02:07:13;;;;;;;16.63;6.63;;;;;;;22.88;76.18;100310.47;4963331;28;102290;-54
2022/08/22 02:09:51;;;;;;;15.88;6.57;;;;;;;22.88;76.29;100309.66;4976705;28;102248;-54
2022/08/22 02:12:29;;;;;;;15.13;6.65;;;;;;;22.89;76.37;100311.25;4975824;28;104179;-53
2022/08/22 02:15:04;;;;;;;13.77;6.25;;;;;;;22.88;76.31;100312.44;4976381;28;102404;-54
2022/08/22 02:17:34;;;;;;;11.68;6.70;;;;;;;22.88;76.35;100315.22;4970883;28;102374;-54
2022/08/22 02:20:09;;;;;;;13.30;6.40;;;;;;;22.88;76.43;100310.47;4958013;28;102240;-54
2022/08/22 02:22:50;;;;;;;17.08;6.28;;;;;;;22.88;76.22;100312.44;4956052;28;103941;-54
2022/08/22 02:25:22;;;;;;;13.07;5.57;;;;;;;22.88;76.12;100304.13;4962926;28;102183;-53
2022/08/22 02:27:56;;;;;;;17.08;6.32;;;;;;;22.89;76.16;100311.25;4977119;28;102205;-53
2022/08/22 02:30:29;;;;;;;16.02;6.70;;;;;;;22.88;76.31;100318.00;4962691;28;102188;-53
2022/08/22 02:33:04;;;;;;;15.13;6.28;;;;;;;22.87;76.44;100319.16;4967272;28;104022;-54
2022/08/22 02:35:38;;;;;;;10.75;5.13;;;;;;;22.87;76.29;100324.72;4969075;28;102338;-54
2022/08/22 02:38:21;;;;;;;16.48;6.32;;;;;;;22.86;76.56;100323.88;4973146;28;102218;-54
2022/08/22 02:41:00;;;;;;;12.10;5.72;;;;;;;22.87;76.32;100324.72;4974403;28;102326;-54
2022/08/22 02:43:38;;;;;;;13.23;5.88;;;;;;;22.86;76.37;100334.19;4960575;28;103998;-54
2022/08/22 02:46:16;;;;;;;11.80;5.65;;;;;;;22.86;76.28;100334.19;4960330;28;101918;-54
2022/08/22 02:48:48;;;;;;;14.45;6.72;;;;;;;22.86;76.45;100331.41;4971121;28;102102;-54
2022/08/22 02:51:23;;;;;;;17.65;6.00;;;;;;;22.86;76.24;100335.00;4981233;28;102501;-54
2022/08/22 02:53:55;;;;;;;16.30;5.68;;;;;;;22.86;76.15;100328.63;4978778;28;102963;-54
2022/08/22 02:56:31;;;;;;;16.90;6.18;;;;;;;22.86;76.31;100339.75;4975803;28;102353;-54
2022/08/22 02:59:13;;;;;;;17.88;6.53;;;;;;;22.85;76.26;100332.59;4978119;28;102223;-54
2022/08/22 03:01:42;;;;;;;19.45;5.57;;;;;;;22.84;76.39;100342.88;4960623;28;102281;-54
2022/08/22 03:04:21;;;;;;;12.27;6.22;;;;;;;22.85;76.39;100347.25;4976733;28;103935;-54
2022/08/22 03:07:06;;;;;;;16.42;6.03;;;;;;;22.85;76.33;100343.69;4979151;28;101969;-54
2022/08/22 03:09:39;;;;;;;13.55;6.00;;;;;;;22.84;76.27;100342.09;4967073;28;102361;-54
2022/08/22 03:12:17;;;;;;;17.38;5.97;;;;;;;22.83;76.27;100346.00;4978224;28;102203;-54
2022/08/22 03:14:54;;;;;;;12.90;6.13;;;;;;;22.84;76.33;100342.09;4978902;28;103949;-54
2022/08/22 03:17:25;;;;;;;13.57;5.93;;;;;;;22.83;76.17;100340.47;4979646;28;102282;-54
2022/08/22 03:19:59;;;;;;;15.80;6.18;;;;;;;22.84;76.26;100342.09;4965700;28;102011;-54
2022/08/22 03:22:34;;;;;;;11.55;5.45;;;;;;;22.84;76.31;100342.09;4960195;28;102264;-54
2022/08/22 03:25:11;;;;;;;14.10;5.32;;;;;;;22.85;76.13;100347.25;4978550;28;103856;-54
2022/08/22 03:27:44;;;;;;;11.52;5.65;;;;;;;22.84;76.07;100351.22;4979090;28;102337;-54
2022/08/22 03:30:18;;;;;;;9.73;5.20;;;;;;;22.83;76.51;100346.00;4976975;28;102029;-54
2022/08/22 03:32:54;;;;;;;16.52;5.60;;;;;;;22.84;76.31;100350.41;4962628;28;102146;-54
2022/08/22 03:35:31;;;;;;;14.65;5.53;;;;;;;22.84;76.27;100347.63;4975400;28;104028;-54
2022/08/22 03:38:13;;;;;;;12.15;5.50;;;;;;;22.83;76.13;100349.59;4959470;28;102583;-54
2022/08/22 03:40:55;;;;;;;17.40;6.30;;;;;;;22.83;76.27;100351.56;4959087;28;102128;-54
2022/08/22 03:43:51;;;;;;;13.30;5.82;;;;;;;22.83;76.31;100351.56;4975011;28;102740;-54
2022/08/22 03:46:44;;;;;;;15.88;5.65;;;;;;;22.83;76.31;100354.34;4958076;28;103975;-54
2022/08/22 03:49:46;;;;;;;15.80;5.68;;;;;;;22.83;76.31;100352.38;4959327;28;102153;-54
2022/08/22 03:53:29;;;;;;;13.35;5.55;;;;;;;22.83;76.25;100362.66;4895341;28;102448;-53
2022/08/22 03:56:11;;;;;;;15.90;5.97;;;;;;;22.82;76.40;100361.06;4973705;28;102310;-54
2022/08/22 03:59:11;;;;;;;14.05;5.57;;;;;;;22.83;76.23;100362.66;4973761;28;103738;-54
2022/08/22 04:02:00;;;;;;;18.00;5.78;;;;;;;22.84;76.19;100375.38;4959262;28;102518;-54
2022/08/22 04:05:14;;;;;;;11.80;5.32;;;;;;;22.84;76.09;100375.38;4965135;28;102029;-53
2022/08/22 04:08:09;;;;;;;14.90;5.72;;;;;;;22.84;76.18;100378.16;4944243;28;102188;-54
2022/08/22 04:11:16;;;;;;;12.15;5.53;;;;;;;22.85;76.40;100379.75;4958491;28;103859;-54
2022/08/22 04:14:02;;;;;;;14.63;5.65;;;;;;;22.83;76.38;100374.59;4963282;28;102329;-54
2022/08/22 04:16:56;;;;;;;11.93;5.97;;;;;;;22.85;76.43;100382.53;4976730;28;102346;-54
2022/08/22 04:19:41;;;;;;;13.82;5.85;;;;;;;22.86;76.32;100386.91;4977873;28;102220;-54
2022/08/22 04:22:28;;;;;;;15.93;5.63;;;;;;;22.86;76.55;100389.69;4957735;28;103882;-54
2022/08/22 04:25:01;;;;;;;13.68;5.45;;;;;;;22.86;76.26;100381.34;4966176;28;102311;-54
2022/08/22 04:27:35;;;;;;;14.35;5.35;;;;;;;22.86;76.05;100384.94;4965828;28;102223;-54
2022/08/22 04:30:08;;;;;;;17.25;6.32;;;;;;;22.86;76.25;100373.81;4959702;28;102100;-54
2022/08/22 04:32:42;;;;;;;15.05;5.72;;;;;;;22.87;75.98;100383.78;4957839;28;104091;-54
2022/08/22 04:35:16;;;;;;;13.23;6.15;;;;;;;22.86;76.27;100373.81;4958788;28;102084;-54
2022/08/22 04:37:50;;;;;;;11.43;5.63;;;;;;;22.87;76.12;100374.66;4957681;28;102159;-54
2022/08/22 04:40:23;;;;;;;12.32;6.13;;;;;;;22.86;76.43;100375.81;4959508;28;102679;-54
2022/08/22 04:42:55;;;;;;;14.95;5.50;;;;;;;22.87;76.16;100380.22;4957926;28;104278;-54
2022/08/22 04:45:28;;;;;;;13.68;5.30;;;;;;;22.86;76.43;100373.03;4964202;28;102490;-54
2022/08/22 04:48:04;;;;;;;16.48;5.53;;;;;;;22.86;76.15;100375.81;4962732;28;102259;-53
2022/08/22 04:50:42;;;;;;;11.65;5.18;;;;;;;22.87;76.33;100380.22;4959376;28;102414;-53
2022/08/22 04:53:25;;;;;;;14.23;5.35;;;;;;;22.86;76.10;100376.59;4975931;28;103950;-54
2022/08/22 04:56:01;;;;;;;15.43;5.18;;;;;;;22.87;76.19;100385.75;4977721;28;101926;-54
2022/08/22 04:58:39;;;;;;;14.35;5.18;;;;;;;22.87;76.12;100386.56;4976155;28;102612;-55
2022/08/22 05:01:13;;;;;;;14.07;5.32;;;;;;;22.87;76.05;100386.56;4977975;28;102453;-54
2022/08/22 05:03:49;;;;;;;17.23;5.97;;;;;;;22.87;76.10;100391.31;4976463;28;104013;-54
2022/08/22 05:06:19;;;;;;;11.77;4.32;;;;;;;22.87;76.01;100382.97;4957730;28;101924;-54
2022/08/22 05:08:47;;;;;;;14.52;5.15;;;;;;;22.87;76.02;100380.22;4963137;28;102657;-54
2022/08/22 05:11:18;;;;;;;10.90;4.40;;;;;;;22.87;76.09;100386.56;4978064;28;102159;-54
2022/08/22 05:13:50;;;;;;;12.25;5.25;;;;;;;22.87;76.02;100385.75;4976991;28;104051;-54
2022/08/22 05:16:22;;;;;;;15.20;5.35;;;;;;;22.88;76.13;100392.91;4977056;28;102068;-54
2022/08/22 05:18:55;;;;;;;12.55;4.80;;;;;;;22.88;75.95;100387.34;4962235;28;102216;-54
2022/08/22 05:21:26;;;;;;;9.60;5.05;;;;;;;22.89;75.76;100394.50;4958509;28;102216;-54
2022/08/22 05:23:57;;;;;;;14.18;4.45;;;;;;;22.89;75.92;100395.31;4966307;28;104141;-54
2022/08/22 05:26:26;;;;;;;12.63;5.03;;;;;;;22.90;75.98;100388.63;4963206;28;102189;-55
2022/08/22 05:28:59;;;;;;;12.15;5.03;;;;;;;22.92;75.98;100393.81;4960355;28;101975;-54
2022/08/22 05:31:31;;;;;;;9.50;4.65;;;;;;;22.92;75.95;100393.81;4977282;28;102131;-53
2022/08/22 05:34:03;;;;;;;13.63;4.80;;;;;;;22.93;75.95;100387.88;4976315;28;103833;-53
2022/08/22 05:36:35;;;;;;;10.43;4.97;;;;;;;22.93;75.96;100389.88;4970476;28;102011;-54
2022/08/22 05:39:07;;;;;;;9.43;5.13;;;;;;;22.94;75.73;100394.28;4958810;28;101938;-54
2022/08/22 05:41:36;;;;;;;12.23;5.20;;;;;;;22.94;75.94;100388.72;4970036;28;102353;-55
2022/08/22 05:44:03;;;;;;;10.57;5.25;;;;;;;22.96;75.90;100397.47;4971777;28;103869;-54
2022/08/22 05:46:40;;;;;;;10.23;5.03;;;;;;;22.97;75.62;100401.84;4967088;28;102057;-54
2022/08/22 05:49:16;;;;;;;12.35;5.63;;;;;;;22.98;76.07;100400.69;4976850;28;102380;-54
2022/08/22 05:51:49;;;;;;;10.32;5.68;;;;;;;22.99;75.72;100396.75;4975074;28;102845;-54
2022/08/22 05:54:20;;;;;;;14.02;5.10;;;;;;;22.99;75.69;100402.31;4976318;28;103947;-54
2022/08/22 05:56:53;;;;;;;12.40;5.18;;;;;;;23.02;75.54;100398.81;4976140;28;102372;-54
2022/08/22 05:59:25;;;;;;;13.23;4.90;;;;;;;23.03;75.56;100394.84;4976341;28;102036;-54
2022/08/22 06:02:01;;;;;;;13.70;5.30;;;;;;;23.02;75.45;100393.25;4974257;28;102553;-54
2022/08/22 06:04:36;;;;;;;9.48;5.07;;;;;;;23.04;75.61;100396.44;4963184;28;103751;-54
2022/08/22 06:07:08;;;;;;;14.27;4.93;;;;;;;23.05;75.58;100388.94;4984771;28;102482;-54
2022/08/22 06:09:58;;;;;;;11.57;5.28;;;;;;;23.06;75.31;100393.31;4976647;28;102252;-54
2022/08/22 06:12:33;;;;;;;14.65;5.25;;;;;;;23.07;75.14;100392.94;4974769;28;102380;-54
2022/08/22 06:15:06;;;;;;;15.57;5.65;;;;;;;23.08;75.55;100397.34;4966395;28;107928;-54
2022/08/22 06:17:36;;;;;;;12.05;6.25;;;;;;;23.09;75.28;100392.59;4976200;28;102242;-54
2022/08/22 06:20:08;;;;;;;11.02;4.85;;;;;;;23.09;75.12;100398.97;4969414;28;102244;-54
2022/08/22 06:22:41;;;;;;;9.82;5.15;;;;;;;23.09;75.46;100398.97;4958407;28;102043;-54
2022/08/22 06:25:15;;;;;;;14.40;4.70;;;;;;;23.10;75.32;100399.75;4955777;28;103667;-54
2022/08/22 06:27:45;;;;;;;10.32;4.57;;;;;;;23.10;75.51;100400.56;4956545;28;102403;-54
2022/08/22 06:30:14;;;;;;;9.60;4.68;;;;;;;23.12;75.32;100397.44;4975231;28;101975;-54
2022/08/22 06:32:48;;;;;;;7.93;3.78;;;;;;;23.11;75.31;100391.06;4977129;28;102137;-54
2022/08/22 06:35:20;;;;;;;10.70;4.70;;;;;;;23.12;75.15;100392.69;4975608;28;103979;-53
2022/08/22 06:37:48;;;;;;;11.18;4.53;;;;;;;23.13;75.52;100399.03;4974535;28;102468;-54
2022/08/22 06:40:17;;;;;;;9.23;5.13;;;;;;;23.15;75.28;100403.06;4970154;28;102295;-54
2022/08/22 06:42:46;;;;;;;;;;;;;;;23.18;74.88;100405.09;4969061;28;103419;-54
2022/08/22 06:45:18;;;;;;;13.55;4.70;;;;;;;23.19;74.53;100398.38;4970746;28;103899;-54
2022/08/22 06:47:50;;;;;;;10.75;4.22;;;;;;;23.19;74.96;100398.38;4974083;28;102539;-54
2022/08/22 06:50:23;;;;;;;12.00;4.82;;;;;;;23.19;74.73;100392.84;4974994;28;103799;-54
2022/08/22 06:52:57;;;;;;;14.35;4.63;;;;;;;23.22;74.54;100396.81;4977415;28;102438;-54
2022/08/22 06:55:26;;;;;;;14.27;4.15;;;;;;;23.21;74.50;100396.03;4973301;28;103961;-54
2022/08/22 06:57:55;;;;;;;12.50;4.15;;;;;;;23.22;74.58;100391.28;4967468;28;102162;-54
2022/08/22 07:00:22;;;;;;;7.40;4.50;;;;;;;23.24;74.57;100400.06;4976036;28;102183;-54
2022/08/22 07:02:54;;;;;;;10.38;4.78;;;;;;;23.22;74.82;100391.28;4962064;28;102588;-54
2022/08/22 07:05:24;;;;;;;11.85;4.25;;;;;;;23.24;74.13;100395.31;4969086;28;104094;-54
2022/08/22 07:07:53;;;;;;;14.30;4.90;;;;;;;23.27;74.37;100393.78;4956425;28;102440;-54
2022/08/22 07:10:20;;;;;;;16.05;4.72;;;;;;;23.28;74.06;100395.38;4987501;28;102156;-54
2022/08/22 07:12:50;;;;;;;11.30;4.60;;;;;;;23.28;73.93;100400.94;4977120;28;102156;-54
2022/08/22 07:15:31;;;;;;;9.13;4.25;;;;;;;23.30;74.02;100395.00;4970853;28;108737;-52
2022/08/22 07:18:00;;;;;;;14.98;4.97;;;;;;;23.33;73.97;100392.28;4975453;28;102222;-54
2022/08/22 07:20:32;;;;;;;13.55;4.95;;;;;;;23.33;73.62;100397.06;4961218;28;102448;-54
2022/08/22 07:23:03;;;;;;;11.70;4.25;;;;;;;23.32;74.22;100395.44;4958146;28;102312;-54
2022/08/22 07:25:34;;;;;;;14.57;5.07;;;;;;;23.32;73.98;100395.44;4970185;28;104008;-54
2022/08/22 07:28:18;;;;;;;10.15;4.50;;;;;;;23.33;73.76;100392.28;4959061;28;102283;-53
2022/08/22 07:30:53;;;;;;;15.65;4.70;;;;;;;23.36;74.20;100393.53;4959823;28;102440;-53
2022/08/22 07:33:42;;;;;;;13.20;5.00;;;;;;;23.36;74.02;100388.00;4960468;28;102052;-54
2022/08/22 07:36:24;;;;;;;11.02;4.70;;;;;;;23.36;73.97;100388.00;4958998;28;103940;-54
2022/08/22 07:39:12;;;;;;;9.18;4.30;;;;;;;23.37;74.01;100393.19;4959299;28;102445;-54
2022/08/22 07:41:54;;;;;;;14.53;4.87;;;;;;;23.39;73.66;100387.25;4968162;28;102391;-54
2022/08/22 07:44:30;;;;;;;15.93;5.55;;;;;;;23.39;73.82;100395.59;4968586;28;102153;-53
2022/08/22 07:47:01;;;;;;;10.55;5.70;;;;;;;23.39;73.90;100401.16;4972893;28;103818;-57
2022/08/22 07:49:31;;;;;;;14.60;5.57;;;;;;;23.37;74.03;100404.31;4974603;28;102323;-54
2022/08/22 07:52:04;;;;;;;17.10;5.88;;;;;;;23.40;73.77;100392.44;4958977;28;102268;-54
2022/08/22 07:54:36;;;;;;;19.23;6.10;;;;;;;23.42;73.69;100400.44;4965755;28;102194;-54
2022/08/22 07:57:08;;;;;;;16.23;6.45;;;;;;;23.42;73.55;100406.78;4967915;28;104055;-54
2022/08/22 07:59:36;;;;;;;12.90;6.00;;;;;;;23.46;73.77;100406.84;4960461;28;102199;-54
2022/08/22 08:02:09;;;;;;;14.48;6.30;;;;;;;23.44;73.65;100403.63;4959264;28;102156;-54
2022/08/22 08:04:38;;;;;;;9.57;5.72;;;;;;;23.44;73.79;100414.72;4977160;28;102285;-54
2022/08/22 08:07:10;;;;;;;11.80;5.85;;;;;;;23.47;73.60;100414.00;4970264;28;104005;-54
2022/08/22 08:09:40;;;;;;;12.05;5.82;;;;;;;23.47;73.42;100412.03;4975436;28;102190;-54
2022/08/22 08:12:11;;;;;;;11.52;5.95;;;;;;;23.45;73.49;100408.81;4977734;28;102544;-54
2022/08/22 08:14:42;;;;;;;11.93;5.50;;;;;;;23.45;73.56;100405.25;4968381;28;104232;-54
2022/08/22 08:17:16;;;;;;;20.27;6.50;;;;;;;23.43;73.49;100402.03;4977349;28;108164;-53
2022/08/22 08:19:44;;;;;;;12.40;5.38;;;;;;;23.44;73.54;100400.84;4958832;28;102718;-54
2022/08/22 08:22:17;;;;;;;12.85;5.97;;;;;;;23.45;73.48;100410.81;4959407;28;102565;-54
2022/08/22 08:24:46;;;;;;;13.23;4.63;;;;;;;23.47;73.44;100414.00;4959673;28;102597;-54
2022/08/22 08:30:23;;;;;;;14.47;5.80;;;;;;;23.50;73.03;100410.50;4878550;28;102422;-54
2022/08/22 08:32:54;;;;;;;16.17;5.82;;;;;;;23.50;72.63;100410.50;4866812;28;102289;-54
2022/08/22 08:35:24;;;;;;;12.40;5.40;;;;;;;23.50;72.79;100408.53;4910683;28;103749;-54
2022/08/22 08:37:57;;;;;;;17.33;6.10;;;;;;;23.50;72.81;100407.72;4978177;28;104392;-54
2022/08/22 08:40:53;;;;;;;11.05;5.32;;;;;;;23.49;72.78;100409.69;4962839;28;102475;-55
2022/08/22 08:43:28;;;;;;;13.38;4.68;;;;;;;23.49;73.00;100412.47;4961769;28;102322;-54
2022/08/22 08:46:31;;;;;;;14.35;5.35;;;;;;;23.50;72.67;100402.16;4969771;28;102233;-54
2022/08/22 08:49:24;;;;;;;15.48;5.20;;;;;;;23.49;72.81;100398.59;4943121;28;108166;-53
2022/08/22 08:52:10;;;;;;;17.92;5.97;;;;;;;23.51;72.84;100398.22;4960748;28;102391;-54
2022/08/22 08:55:06;;;;;;;12.82;5.75;;;;;;;23.53;72.58;100392.31;4977164;28;102187;-54
2022/08/22 08:57:46;;;;;;;12.27;4.85;;;;;;;23.53;72.30;100406.19;4977371;28;102213;-54
2022/08/22 09:00:19;;;;;;;14.32;6.22;;;;;;;23.54;72.37;100394.69;4976865;28;104165;-54
2022/08/22 09:02:52;;;;;;;19.60;5.07;;;;;;;23.56;72.27;100391.56;4981116;28;102222;-54
2022/08/22 09:05:50;;;;;;;16.13;5.80;;;;;;;23.57;72.46;100402.31;4980607;28;102261;-54
2022/08/22 09:09:00;;;;;;;16.40;5.33;;;;;;;23.57;72.33;100395.94;4958272;28;102283;-54
2022/08/22 09:12:00;;;;;;;22.63;6.50;;;;;;;23.59;72.41;100396.41;4970926;28;104028;-54
2022/08/22 09:14:52;;;;;;;13.10;5.30;;;;;;;23.57;72.32;100396.75;4965469;28;102539;-54
2022/08/22 09:17:36;;;;;;;9.82;4.65;;;;;;;23.57;72.33;100388.41;4959696;28;101972;-54
2022/08/22 09:20:45;;;;;;;16.15;5.20;;;;;;;23.58;72.04;100398.34;4969998;28;102229;-53
2022/08/22 09:23:43;;;;;;;;;;;;;;;23.59;72.07;100394.41;4885048;28;103933;-54
2022/08/22 09:26:15;;;;;;;15.88;4.93;;;;;;;23.61;72.04;100402.38;4974606;28;102829;-54
2022/08/22 09:28:52;;;;;;;18.15;4.80;;;;;;;23.61;71.96;100397.63;4974087;28;102349;-54
2022/08/22 09:31:44;;;;;;;17.45;5.28;;;;;;;23.60;71.75;100396.03;4981431;28;104767;-54
2022/08/22 09:34:17;;;;;;;15.45;5.40;;;;;;;23.61;72.11;100391.25;4957056;28;103964;-54
2022/08/22 09:36:58;;;;;;;14.57;4.65;;;;;;;23.61;71.82;100392.06;4966403;28;102488;-54
2022/08/22 09:39:33;;;;;;;15.77;4.88;;;;;;;23.60;72.10;100396.03;4956798;28;101941;-53
2022/08/22 09:42:08;;;;;;;13.32;4.90;;;;;;;23.58;71.99;100381.69;4978411;28;102086;-54
2022/08/22 09:44:45;;;;;;;12.35;5.03;;;;;;;23.56;72.08;100392.38;4965608;28;104115;-54
2022/08/22 09:47:21;;;;;;;14.00;4.50;;;;;;;23.56;72.27;100391.56;4975992;28;102071;-54
2022/08/22 09:50:02;;;;;;;12.15;5.05;;;;;;;23.54;72.10;100386.38;4972952;28;102367;-54
2022/08/22 09:52:48;;;;;;;10.13;4.80;;;;;;;23.54;72.09;100383.59;4962756;28;102076;-54
2022/08/22 09:55:31;;;;;;;11.65;4.60;;;;;;;23.56;72.19;100386.03;4976101;28;103949;-54
2022/08/22 09:58:05;;;;;;;13.30;5.30;;;;;;;23.54;72.21;100375.25;4959510;28;102210;-54
2022/08/22 10:00:43;;;;;;;13.57;4.55;;;;;;;23.52;72.36;100374.84;4965509;28;102142;-54
2022/08/22 10:03:18;;;;;;;15.68;4.80;;;;;;;23.54;72.42;100380.81;4962512;28;102409;-54
2022/08/22 10:19:16;;;;;;;13.20;3.95;;;;;;;23.54;72.30;100383.59;5055732;27;102587;-53
2022/08/22 10:22:09;;;;;;;15.63;4.93;;;;;;;23.57;71.92;100384.84;5032843;27;102224;-53
2022/08/22 10:24:42;;;;;;;13.73;4.53;;;;;;;23.56;72.25;100383.25;5013841;28;103939;-52
2022/08/22 10:27:15;;;;;;;8.65;3.97;;;;;;;23.54;72.40;100380.81;4997692;28;102310;-53
2022/08/22 10:29:57;;;;;;;11.55;4.32;;;;;;;23.53;72.33;100383.97;5003674;28;102586;-53
2022/08/22 10:32:33;;;;;;;10.43;4.50;;;;;;;23.52;72.23;100376.81;5014724;28;102189;-53
2022/08/22 10:35:12;;;;;;;10.68;5.30;;;;;;;23.51;72.37;100384.31;4993464;28;103943;-53
2022/08/22 10:37:48;;;;;;;11.43;4.75;;;;;;;23.52;72.27;100376.81;5017475;27;102193;-53
2022/08/22 10:40:21;;;;;;;8.70;4.05;;;;;;;23.52;72.36;100385.16;5007435;28;102201;-53
2022/08/22 10:42:53;;;;;;;10.90;4.90;;;;;;;23.52;72.13;100383.19;5010213;28;102222;-53
2022/08/22 10:45:28;;;;;;;11.23;4.07;;;;;;;23.49;72.37;100376.38;5013636;27;103968;-53
2022/08/22 10:48:31;;;;;;;7.97;4.65;;;;;;;23.50;72.26;100375.19;5012016;28;102244;-53
2022/08/22 10:51:12;;;;;;;9.75;4.50;;;;;;;23.49;72.19;100378.34;4975401;28;102378;-53
2022/08/22 10:53:54;;;;;;;11.82;4.85;;;;;;;23.52;72.30;100377.63;5009061;28;102148;-52
2022/08/22 10:56:28;;;;;;;9.27;4.50;;;;;;;23.52;72.31;100374.03;5011397;28;104263;-53
2022/08/22 10:59:02;;;;;;;17.33;5.35;;;;;;;23.52;72.20;100372.06;5011558;28;102271;-53
2022/08/22 11:01:36;;;;;;;13.32;5.82;;;;;;;23.51;72.39;100359.31;5009831;28;102527;-53
2022/08/22 11:04:11;;;;;;;14.95;4.72;;;;;;;23.50;72.52;100360.50;5013200;28;102445;-53
2022/08/22 11:06:45;;;;;;;9.45;4.53;;;;;;;23.49;72.20;100367.25;5011371;28;103941;-53
2022/08/22 11:09:26;;;;;;;13.52;4.50;;;;;;;23.48;72.42;100360.88;5026200;27;102469;-53
2022/08/22 11:12:01;;;;;;;8.82;4.65;;;;;;;23.49;72.29;100361.69;5013742;27;102251;-53
2022/08/22 11:15:06;;;;;;;12.82;4.97;;;;;;;23.48;72.47;100360.09;5020411;28;101957;-53
2022/08/22 11:18:13;;;;;;;13.27;4.78;;;;;;;23.48;72.48;100358.09;4992605;28;108137;-53
2022/08/22 11:20:52;;;;;;;11.18;4.90;;;;;;;23.50;72.39;100360.50;4918858;28;102163;-53
2022/08/22 11:23:30;;;;;;;11.32;4.65;;;;;;;23.50;72.40;100361.31;4925512;28;102068;-53
2022/08/22 11:26:08;;;;;;;12.18;5.00;;;;;;;23.49;72.43;100345.81;4948503;28;102638;-53
2022/08/22 11:29:09;;;;;;;12.20;4.50;;;;;;;23.50;72.33;100360.50;4937865;28;103975;-53
2022/08/22 11:31:46;;;;;;;12.85;4.82;;;;;;;23.47;72.50;100341.78;5041624;27;102235;-53
2022/08/22 11:34:25;;;;;;;13.57;4.65;;;;;;;23.49;72.55;100350.56;5059597;27;103147;-53
2022/08/22 11:36:54;;;;;;;9.30;4.68;;;;;;;23.49;72.41;100356.13;4964881;27;102334;-53
2022/08/22 11:39:27;;;;;;;;;;;;;;;23.50;72.52;100364.09;4937270;28;103933;-53
2022/08/22 11:42:04;;;;;;;11.18;5.03;;;;;;;23.48;72.48;100349.78;4937651;28;101947;-52
2022/08/22 11:44:35;;;;;;;12.38;5.18;;;;;;;23.48;72.55;100354.53;4937572;28;102356;-53
2022/08/22 11:47:08;;;;;;;12.40;5.03;;;;;;;23.48;72.59;100354.53;4938299;28;102205;-53
2022/08/22 11:49:48;;;;;;;8.45;4.57;;;;;;;23.46;72.61;100357.66;4941008;28;103850;-53
2022/08/22 11:52:55;;;;;;;12.52;4.75;;;;;;;23.45;72.70;100355.25;4965408;28;102122;-53
2022/08/22 11:55:30;;;;;;;17.95;5.25;;;;;;;23.47;72.67;100347.34;4962093;28;102279;-53
2022/08/22 11:58:09;;;;;;;14.10;4.75;;;;;;;23.48;72.83;100348.97;4976870;28;102048;-53
2022/08/22 12:00:46;;;;;;;12.48;4.78;;;;;;;23.49;72.56;100345.03;4967287;28;108145;-53
2022/08/22 12:03:39;;;;;;;10.88;5.25;;;;;;;23.47;72.98;100352.91;4965229;28;102255;-53
2022/08/22 12:06:27;;;;;;;11.15;4.57;;;;;;;23.46;72.75;100349.31;4939531;28;102187;-53
2022/08/22 12:09:19;;;;;;;8.77;4.68;;;;;;;23.45;73.13;100344.94;4945813;28;102196;-53
2022/08/22 12:12:07;;;;;;;8.25;4.80;;;;;;;23.45;72.95;100344.16;4956112;28;104026;-53
2022/08/22 12:14:43;;;;;;;10.30;5.82;;;;;;;23.48;72.45;100348.97;4947606;28;102134;-53
2022/08/22 12:17:23;;;;;;;13.32;4.93;;;;;;;23.48;72.45;100343.41;4946326;28;102074;-53
2022/08/22 12:20:04;;;;;;;12.38;5.07;;;;;;;23.46;72.80;100345.75;4940615;28;102634;-53
2022/08/22 12:22:45;;;;;;;12.98;4.88;;;;;;;23.45;72.83;100349.72;4955668;28;108188;-53